Terminal Aerodrome Forecast
Issued by NWS

Home | Current Version | Previous Version | Text Only | Print | Product List | Glossary On
Versions: 1 2 3 4 5 6 7 8 9 10 11 12 13 14 15
000
FTUS41 KBTV 291138
TAFPBG
TAF
KPBG 291138Z 2912/3012 16006KT P6SM BKN090
     FM291400 16013G20KT P6SM -SHRA SCT025 OVC060
     FM291700 16012KT 6SM SHRA BR OVC025
     FM292200 16012G20KT P6SM VCSH BKN035
     FM300000 17011KT P6SM BKN030
     FM300100 17011KT P6SM SCT040=

USA.gov is the U.S. government's official web portal to all federal, state and local government web resources and services.